createdAt,value
2022-09-06T00:00:30.246Z,3.15
2022-09-06T00:02:59.270Z,2.75
2022-09-06T00:05:27.336Z,3.30
2022-09-06T00:07:55.751Z,2.78
2022-09-06T00:10:25.095Z,3.20
2022-09-06T00:12:53.700Z,3.10
2022-09-06T00:15:22.507Z,2.75
2022-09-06T00:17:51.625Z,3.00
2022-09-06T00:20:19.822Z,3.30
2022-09-06T00:22:47.762Z,3.20
2022-09-06T00:25:16.196Z,3.30
2022-09-06T00:27:45.522Z,3.15
2022-09-06T00:30:14.570Z,3.42
2022-09-06T00:32:42.710Z,3.13
2022-09-06T00:35:10.713Z,3.15
2022-09-06T00:37:38.986Z,3.10
2022-09-06T00:40:08.513Z,3.35
2022-09-06T00:42:36.824Z,3.40
2022-09-06T00:45:08.276Z,2.70
2022-09-06T00:47:38.955Z,3.03
2022-09-06T00:50:08.693Z,3.35
2022-09-06T00:52:39.239Z,3.20
2022-09-06T00:55:08.632Z,3.00
2022-09-06T00:57:37.947Z,3.42
2022-09-06T01:00:09.832Z,3.45
2022-09-06T01:02:38.355Z,3.00
2022-09-06T01:05:07.708Z,3.17
2022-09-06T01:07:57.639Z,3.13
2022-09-06T01:10:44.378Z,3.40
2022-09-06T01:13:23.870Z,2.80
2022-09-06T01:15:59.617Z,3.63
2022-09-06T01:18:42.723Z,4.20
2022-09-06T01:21:26.432Z,3.40
2022-09-06T01:24:31.068Z,3.10
2022-09-06T01:27:45.390Z,3.30
2022-09-06T01:30:15.393Z,3.08
2022-09-06T01:32:52.131Z,3.15
2022-09-06T01:35:29.562Z,3.17
2022-09-06T01:37:58.415Z,4.10
2022-09-06T01:40:27.940Z,3.45
2022-09-06T01:42:58.676Z,3.60
2022-09-06T01:45:39.682Z,3.72
2022-09-06T01:48:17.024Z,3.63
2022-09-06T01:50:55.590Z,3.75
2022-09-06T01:53:37.002Z,3.70
2022-09-06T01:56:09.999Z,3.40
2022-09-06T01:59:02.758Z,3.80
2022-09-06T02:01:41.091Z,3.30
2022-09-06T02:04:17.626Z,4.00
2022-09-06T02:06:51.738Z,4.10
2022-09-06T02:09:23.942Z,3.55
2022-09-06T02:11:55.370Z,3.78
2022-09-06T02:14:30.120Z,3.88
2022-09-06T02:17:00.267Z,3.80
2022-09-06T02:19:35.974Z,3.75
2022-09-06T02:22:08.879Z,3.20
2022-09-06T02:24:40.837Z,3.58
2022-09-06T02:27:09.261Z,4.30
2022-09-06T02:29:38.799Z,4.68
2022-09-06T02:32:14.395Z,3.50
2022-09-06T02:34:43.986Z,3.50
2022-09-06T02:37:14.167Z,4.22
2022-09-06T02:39:42.188Z,3.92
2022-09-06T02:42:12.132Z,4.60
2022-09-06T02:44:41.663Z,4.82
2022-09-06T02:47:09.828Z,4.70
2022-09-06T02:49:37.903Z,4.07
2022-09-06T02:52:06.252Z,3.80
2022-09-06T02:54:34.260Z,3.33
2022-09-06T02:57:02.210Z,3.83
2022-09-06T02:59:30.427Z,3.90
2022-09-06T03:02:00.150Z,3.88
2022-09-06T03:04:28.491Z,3.95
2022-09-06T03:06:57.314Z,4.82
2022-09-06T03:09:25.734Z,3.95
2022-09-06T03:11:53.706Z,4.03
2022-09-06T03:14:22.293Z,3.53
2022-09-06T03:16:50.359Z,3.50
2022-09-06T03:19:21.626Z,3.70
2022-09-06T03:21:49.867Z,3.58
2022-09-06T03:24:17.869Z,3.78
2022-09-06T03:26:46.053Z,3.55
2022-09-06T03:29:14.200Z,3.75
2022-09-06T03:31:42.421Z,3.78
2022-09-06T03:34:11.319Z,3.75
2022-09-06T03:36:40.877Z,3.72
2022-09-06T03:39:09.072Z,3.95
2022-09-06T03:41:38.200Z,3.95
2022-09-06T03:44:06.828Z,4.00
2022-09-06T03:46:34.852Z,3.85
2022-09-06T03:49:03.247Z,3.95
2022-09-06T03:51:31.293Z,3.70
2022-09-06T03:54:01.141Z,3.53
2022-09-06T03:56:29.299Z,3.53
2022-09-06T03:58:57.818Z,3.30
2022-09-06T04:01:25.907Z,3.40
2022-09-06T04:03:54.029Z,3.70
2022-09-06T04:06:22.334Z,5.43
2022-09-06T04:08:50.529Z,6.55
2022-09-06T04:11:20.057Z,6.65
2022-09-06T04:13:48.695Z,6.60
2022-09-06T04:16:17.746Z,5.10
2022-09-06T04:18:45.932Z,5.38
2022-09-06T04:21:14.016Z,4.00
2022-09-06T04:23:42.320Z,3.30
2022-09-06T04:26:10.262Z,3.50
2022-09-06T04:28:39.971Z,2.90
2022-09-06T04:31:07.990Z,3.80
2022-09-06T04:33:38.358Z,3.35
2022-09-06T04:36:08.848Z,3.72
2022-09-06T04:38:38.986Z,3.40
2022-09-06T04:41:07.989Z,3.10
2022-09-06T04:43:36.142Z,3.40
2022-09-06T04:46:07.861Z,3.33
2022-09-06T04:48:36.675Z,3.75
2022-09-06T04:51:04.780Z,3.05
2022-09-06T04:53:33.275Z,3.47
2022-09-06T04:56:01.272Z,3.55
2022-09-06T04:58:29.641Z,3.53
2022-09-06T05:00:57.914Z,3.05
2022-09-06T05:03:27.326Z,3.70
2022-09-06T05:06:05.899Z,3.50
2022-09-06T05:08:33.954Z,3.40
2022-09-06T05:11:02.229Z,4.00
2022-09-06T05:13:30.313Z,3.60
2022-09-06T05:16:01.983Z,3.42
2022-09-06T05:18:31.451Z,3.50
2022-09-06T05:21:00.104Z,3.47
2022-09-06T05:23:29.032Z,3.67
2022-09-06T05:25:57.167Z,3.33
2022-09-06T05:28:25.539Z,3.40
2022-09-06T05:30:53.623Z,3.00
2022-09-06T05:33:23.839Z,3.55
2022-09-06T05:35:53.177Z,3.47
2022-09-06T05:38:21.362Z,2.85
2022-09-06T05:40:49.401Z,3.42
2022-09-06T05:43:17.590Z,3.80
2022-09-06T05:45:46.091Z,3.38
2022-09-06T05:48:14.436Z,3.08
2022-09-06T05:50:42.480Z,3.30
2022-09-06T05:53:12.008Z,3.95
2022-09-06T05:55:42.908Z,3.33
2022-09-06T05:58:11.298Z,3.55
2022-09-06T06:00:40.085Z,4.00
2022-09-06T06:03:08.058Z,3.60
2022-09-06T06:05:36.300Z,3.60
2022-09-06T06:08:04.358Z,3.40
2022-09-06T06:10:38.488Z,3.40
2022-09-06T06:15:34.850Z,3.17
2022-09-06T06:18:02.849Z,3.70
2022-09-06T06:20:31.015Z,3.58
2022-09-06T06:22:59.145Z,3.70
2022-09-06T06:25:27.144Z,3.15
2022-09-06T06:27:56.623Z,3.40
2022-09-06T06:30:24.737Z,3.20
2022-09-06T06:32:52.703Z,3.42
2022-09-06T06:35:20.880Z,3.42
2022-09-06T06:37:48.855Z,2.97
2022-09-06T06:40:17.212Z,3.60
2022-09-06T06:42:45.261Z,3.30
2022-09-06T06:45:14.933Z,2.88
2022-09-06T06:47:42.987Z,3.03
2022-09-06T06:50:11.683Z,3.15
2022-09-06T06:52:39.826Z,3.25
2022-09-06T06:55:08.285Z,3.35
2022-09-06T06:57:36.605Z,3.40
2022-09-06T07:00:06.039Z,3.30
2022-09-06T07:02:35.904Z,3.20
2022-09-06T07:07:52.171Z,3.20
2022-09-06T07:10:35.650Z,2.90
2022-09-06T07:13:04.183Z,3.05
2022-09-06T07:15:32.357Z,3.20
2022-09-06T07:18:02.212Z,3.22
2022-09-06T07:20:30.962Z,2.83
2022-09-06T07:25:53.179Z,3.25
2022-09-06T07:28:21.468Z,3.08
2022-09-06T07:30:49.574Z,3.17
2022-09-06T07:33:18.890Z,2.53
2022-09-06T07:35:56.944Z,2.80
2022-09-06T07:38:25.124Z,2.85
2022-09-06T07:40:56.575Z,3.50
2022-09-06T07:43:24.891Z,2.58
2022-09-06T07:46:00.441Z,3.10
2022-09-06T07:48:31.931Z,3.03
2022-09-06T07:51:07.618Z,3.03
2022-09-06T07:53:36.528Z,3.05
2022-09-06T07:56:07.903Z,2.65
2022-09-06T07:58:36.296Z,2.85
2022-09-06T08:01:19.705Z,3.10
2022-09-06T08:03:49.347Z,3.20
2022-09-06T08:06:17.408Z,3.40
2022-09-06T08:09:01.179Z,2.88
2022-09-06T08:11:31.533Z,2.87
2022-09-06T08:14:01.148Z,3.20
2022-09-06T08:16:31.228Z,3.10
2022-09-06T08:19:02.206Z,2.88
2022-09-06T08:21:32.208Z,3.08
2022-09-06T08:24:02.237Z,2.70
2022-09-06T08:26:31.610Z,2.80
2022-09-06T08:29:02.022Z,3.20
2022-09-06T08:31:32.333Z,2.65
2022-09-06T08:34:02.595Z,2.70
2022-09-06T08:36:31.553Z,2.72
2022-09-06T08:39:00.397Z,3.30
2022-09-06T08:41:32.119Z,2.67
2022-09-06T08:46:58.678Z,2.72
2022-09-06T08:49:32.607Z,2.88
2022-09-06T08:52:14.821Z,3.17
2022-09-06T08:54:49.654Z,3.17
2022-09-06T08:57:34.959Z,3.05
2022-09-06T09:00:10.468Z,3.15
2022-09-06T09:02:44.514Z,3.60
2022-09-06T09:05:24.481Z,3.28
2022-09-06T09:08:03.085Z,2.92
2022-09-06T09:10:35.754Z,2.70
2022-09-06T09:13:05.787Z,2.90
2022-09-06T09:15:40.245Z,2.97
2022-09-06T09:18:09.101Z,3.33
2022-09-06T09:20:40.356Z,2.65
2022-09-06T09:23:08.427Z,2.90
2022-09-06T09:25:39.571Z,3.22
2022-09-06T09:28:17.077Z,2.50
2022-09-06T09:30:50.980Z,2.80
2022-09-06T09:33:24.579Z,2.78
2022-09-06T09:35:54.847Z,2.40
2022-09-06T09:38:27.577Z,2.50
2022-09-06T09:40:57.345Z,2.88
2022-09-06T09:43:27.078Z,2.60
2022-09-06T09:46:14.090Z,2.65
2022-09-06T09:48:44.545Z,3.05
2022-09-06T09:51:27.736Z,2.75
2022-09-06T09:53:57.722Z,3.13
2022-09-06T09:56:35.243Z,2.63
2022-09-06T09:59:04.488Z,3.17
2022-09-06T10:01:34.201Z,3.00
2022-09-06T10:07:10.492Z,2.85
2022-09-06T10:09:40.951Z,2.90
2022-09-06T10:12:09.211Z,2.78
2022-09-06T10:14:46.283Z,3.17
2022-09-06T10:17:23.079Z,3.00
2022-09-06T10:19:51.115Z,2.58
2022-09-06T10:22:29.026Z,2.70
2022-09-06T10:25:38.569Z,3.35
2022-09-06T10:28:38.975Z,5.95
2022-09-06T10:31:48.838Z,8.68
2022-09-06T10:34:53.301Z,4.50
2022-09-06T10:37:37.469Z,3.47
2022-09-06T10:40:09.843Z,3.40
2022-09-06T10:42:45.333Z,3.78
2022-09-06T10:45:24.998Z,4.25
2022-09-06T10:47:57.806Z,3.45
2022-09-06T10:50:34.586Z,3.42
2022-09-06T10:53:10.198Z,3.88
2022-09-06T10:55:41.248Z,3.40
2022-09-06T11:00:46.893Z,3.25
2022-09-06T11:06:18.312Z,4.18
2022-09-06T11:08:58.163Z,4.15
2022-09-06T11:11:35.751Z,3.65
2022-09-06T11:14:09.810Z,4.05
2022-09-06T11:16:45.688Z,3.80
2022-09-06T11:19:18.936Z,3.60
2022-09-06T11:22:14.727Z,3.75
2022-09-06T11:25:02.947Z,3.83
2022-09-06T11:27:38.116Z,4.35
2022-09-06T11:30:07.232Z,3.92
2022-09-06T11:32:39.273Z,3.92
2022-09-06T11:35:11.121Z,4.18
2022-09-06T11:37:43.019Z,3.75
2022-09-06T11:43:38.810Z,2.92
2022-09-06T11:46:06.852Z,4.20
2022-09-06T11:48:51.418Z,3.03
2022-09-06T11:51:38.428Z,3.80
2022-09-06T11:54:31.618Z,4.00
2022-09-06T11:57:03.702Z,3.75
2022-09-06T11:59:38.127Z,3.53
2022-09-06T12:02:08.496Z,3.55
2022-09-06T12:05:13.928Z,2.88
2022-09-06T12:08:13.427Z,3.05
2022-09-06T12:10:52.554Z,3.15
2022-09-06T12:13:53.913Z,3.25
2022-09-06T12:16:22.970Z,3.50
2022-09-06T12:19:00.088Z,3.00
2022-09-06T12:21:47.550Z,2.80
2022-09-06T12:24:55.102Z,3.30
2022-09-06T12:27:24.927Z,3.40
2022-09-06T12:29:58.451Z,3.10
2022-09-06T12:32:36.820Z,2.85
2022-09-06T12:37:58.469Z,3.10
2022-09-06T12:40:29.953Z,3.45
2022-09-06T12:42:58.513Z,2.42
2022-09-06T12:45:28.017Z,2.90
2022-09-06T12:48:08.549Z,2.78
2022-09-06T12:50:37.399Z,2.85
2022-09-06T12:53:23.428Z,3.05
2022-09-06T12:56:03.542Z,3.97
2022-09-06T12:58:32.000Z,3.10
2022-09-06T13:01:09.518Z,2.60
2022-09-06T13:03:41.869Z,2.95
2022-09-06T13:06:19.086Z,2.60
2022-09-06T13:08:52.144Z,2.65
2022-09-06T13:11:26.713Z,2.95
2022-09-06T13:13:56.351Z,2.42
2022-09-06T13:16:27.713Z,2.95
2022-09-06T13:18:55.915Z,3.20
2022-09-06T13:21:34.393Z,2.88
2022-09-06T13:24:19.482Z,2.45
2022-09-06T13:26:48.139Z,2.78
2022-09-06T13:29:26.934Z,2.53
2022-09-06T13:31:59.074Z,2.63
2022-09-06T13:34:29.301Z,2.15
2022-09-06T13:37:05.362Z,2.65
2022-09-06T13:39:35.390Z,2.40
2022-09-06T13:42:07.622Z,2.20
2022-09-06T13:44:37.422Z,2.28
2022-09-06T13:47:07.950Z,2.50
2022-09-06T13:49:35.962Z,2.50
2022-09-06T13:52:05.500Z,2.47
2022-09-06T13:54:35.818Z,2.55
2022-09-06T13:57:04.213Z,2.28
2022-09-06T13:59:32.466Z,2.97
2022-09-06T14:02:03.460Z,2.50
2022-09-06T14:04:32.999Z,2.60
2022-09-06T14:07:01.650Z,2.55
2022-09-06T14:09:30.454Z,2.10
2022-09-06T14:11:58.668Z,2.60
2022-09-06T14:14:26.775Z,11.63
2022-09-06T14:16:55.284Z,3.80
2022-09-06T14:19:23.865Z,3.60
2022-09-06T14:21:53.537Z,2.67
2022-09-06T14:24:21.986Z,2.95
2022-09-06T14:26:50.234Z,2.90
2022-09-06T14:29:18.194Z,3.00
2022-09-06T14:31:48.385Z,2.60
2022-09-06T14:34:16.946Z,2.95
2022-09-06T14:36:44.930Z,2.75
2022-09-06T14:39:14.580Z,2.47
2022-09-06T14:41:42.629Z,2.90
2022-09-06T14:44:11.060Z,2.78
2022-09-06T14:46:39.707Z,3.13
2022-09-06T14:49:10.167Z,2.95
2022-09-06T14:51:39.960Z,3.08
2022-09-06T14:54:10.108Z,3.00
2022-09-06T14:56:41.223Z,3.10
2022-09-06T14:59:09.649Z,3.00
2022-09-06T15:01:38.912Z,3.28
2022-09-06T15:04:08.824Z,3.13
2022-09-06T15:06:40.335Z,3.25
2022-09-06T15:09:11.713Z,3.03
2022-09-06T15:11:42.750Z,3.33
2022-09-06T15:14:15.740Z,3.35
2022-09-06T15:16:44.220Z,3.50
2022-09-06T15:19:12.343Z,3.50
2022-09-06T15:21:40.913Z,3.72
2022-09-06T15:24:12.177Z,3.65
2022-09-06T15:26:43.116Z,3.70
2022-09-06T15:29:12.409Z,3.40
2022-09-06T15:31:41.939Z,3.15
2022-09-06T15:34:10.598Z,3.30
2022-09-06T15:36:39.080Z,3.25
2022-09-06T15:39:07.377Z,2.80
2022-09-06T15:41:37.403Z,2.92
2022-09-06T15:44:10.639Z,3.60
2022-09-06T15:46:48.071Z,3.08
2022-09-06T15:49:18.167Z,3.42
2022-09-06T15:51:46.773Z,3.53
2022-09-06T15:54:16.781Z,3.15
2022-09-06T15:56:45.876Z,3.25
2022-09-06T15:59:15.301Z,3.55
2022-09-06T16:01:43.620Z,3.50
2022-09-06T16:04:11.728Z,3.60
2022-09-06T16:06:42.759Z,3.17
2022-09-06T16:09:14.770Z,3.33
2022-09-06T16:11:43.085Z,3.30
2022-09-06T16:14:15.903Z,3.20
2022-09-06T16:16:44.804Z,2.92
2022-09-06T16:19:14.181Z,3.20
2022-09-06T16:21:44.407Z,3.60
2022-09-06T16:24:14.381Z,2.78
2022-09-06T16:26:46.264Z,3.00
2022-09-06T16:29:17.989Z,3.42
2022-09-06T16:31:47.100Z,3.42
2022-09-06T16:34:15.900Z,3.20
2022-09-06T16:36:44.161Z,3.28
2022-09-06T16:39:12.779Z,2.80
2022-09-06T16:41:42.827Z,3.17
2022-09-06T16:44:16.086Z,2.95
2022-09-06T16:46:47.541Z,3.25
2022-09-06T16:49:17.201Z,2.78
2022-09-06T16:51:46.257Z,2.90
2022-09-06T16:54:15.759Z,2.95
2022-09-06T16:56:44.836Z,2.60
2022-09-06T16:59:15.178Z,3.17
2022-09-06T17:01:44.655Z,3.03
2022-09-06T17:04:14.899Z,2.60
2022-09-06T17:06:45.877Z,2.50
2022-09-06T17:09:15.857Z,3.13
2022-09-06T17:11:44.203Z,2.63
2022-09-06T17:14:12.329Z,3.00
2022-09-06T17:16:58.238Z,2.72
2022-09-06T17:19:28.177Z,3.55
2022-09-06T17:21:56.648Z,2.78
2022-09-06T17:24:24.758Z,3.00
2022-09-06T17:26:53.036Z,3.60
2022-09-06T17:29:21.364Z,3.55
2022-09-06T17:31:49.536Z,3.40
2022-09-06T17:34:17.922Z,3.63
2022-09-06T17:36:47.386Z,3.28
2022-09-06T17:39:18.711Z,3.67
2022-09-06T17:41:49.819Z,4.03
2022-09-06T17:44:21.434Z,4.07
2022-09-06T17:47:11.863Z,3.42
2022-09-06T17:49:39.397Z,3.35
2022-09-06T17:52:09.011Z,3.60
2022-09-06T17:54:37.277Z,3.97
2022-09-06T17:57:05.516Z,3.65
2022-09-06T17:59:35.799Z,3.42
2022-09-06T18:02:04.909Z,3.72
2022-09-06T18:04:33.169Z,3.72
2022-09-06T18:07:01.566Z,3.35
2022-09-06T18:09:31.195Z,3.60
2022-09-06T18:11:59.438Z,3.08
2022-09-06T18:14:28.597Z,3.40
2022-09-06T18:16:57.008Z,4.75
2022-09-06T18:19:26.182Z,3.25
2022-09-06T18:21:55.201Z,4.00
2022-09-06T18:24:23.881Z,3.95
2022-09-06T18:26:53.578Z,3.58
2022-09-06T18:29:21.862Z,3.90
2022-09-06T18:31:53.551Z,3.88
2022-09-06T18:34:21.967Z,3.83
2022-09-06T18:36:50.079Z,3.60
2022-09-06T18:39:19.165Z,3.83
2022-09-06T18:42:06.909Z,3.53
2022-09-06T18:44:36.884Z,3.40
2022-09-06T18:47:07.471Z,3.55
2022-09-06T18:49:39.461Z,3.70
2022-09-06T18:54:38.080Z,3.60
2022-09-06T18:57:06.216Z,4.10
2022-09-06T18:59:34.509Z,4.25
2022-09-06T19:02:04.066Z,3.28
2022-09-06T19:04:32.307Z,4.10
2022-09-06T19:07:02.987Z,3.60
2022-09-06T19:09:31.148Z,4.50
2022-09-06T19:11:59.373Z,3.83
2022-09-06T19:14:27.448Z,4.10
2022-09-06T19:16:55.740Z,4.43
2022-09-06T19:19:25.755Z,4.68
2022-09-06T19:21:54.070Z,4.75
2022-09-06T19:24:24.575Z,3.78
2022-09-06T19:26:53.559Z,4.50
2022-09-06T19:29:21.687Z,4.18
2022-09-06T19:31:50.425Z,4.30
2022-09-06T19:34:18.755Z,4.60
2022-09-06T19:36:50.129Z,4.93
2022-09-06T19:39:18.886Z,5.13
2022-09-06T19:41:47.776Z,5.32
2022-09-06T19:44:17.205Z,5.38
2022-09-06T19:46:47.050Z,5.07
2022-09-06T19:49:19.239Z,4.38
2022-09-06T19:51:50.724Z,4.80
2022-09-06T19:54:19.296Z,4.30
2022-09-06T19:56:47.921Z,5.30
2022-09-06T19:59:17.802Z,4.50
2022-09-06T20:01:47.191Z,4.50
2022-09-06T20:04:16.115Z,4.60
2022-09-06T20:06:44.475Z,4.60
2022-09-06T20:09:15.989Z,4.97
2022-09-06T20:11:44.300Z,4.40
2022-09-06T20:14:13.240Z,4.95
2022-09-06T20:16:42.676Z,4.45
2022-09-06T20:19:12.452Z,4.88
2022-09-06T20:21:40.760Z,4.47
2022-09-06T20:24:09.447Z,5.68
2022-09-06T20:26:39.052Z,4.57
2022-09-06T20:29:07.739Z,4.20
2022-09-06T20:31:37.445Z,4.78
2022-09-06T20:34:07.525Z,5.40
2022-09-06T20:36:35.763Z,5.30
2022-09-06T20:39:04.508Z,4.72
2022-09-06T20:41:33.895Z,4.43
2022-09-06T20:44:03.861Z,4.88
2022-09-06T20:46:34.024Z,4.70
2022-09-06T20:49:04.669Z,4.65
2022-09-06T20:51:34.442Z,4.88
2022-09-06T20:54:03.707Z,4.75
2022-09-06T20:56:34.336Z,4.85
2022-09-06T20:59:06.238Z,4.70
2022-09-06T21:01:36.073Z,4.95
2022-09-06T21:04:05.909Z,5.05
2022-09-06T21:06:35.650Z,5.15
2022-09-06T21:09:05.586Z,5.32
2022-09-06T21:11:34.049Z,5.05
2022-09-06T21:14:04.640Z,5.07
2022-09-06T21:16:33.214Z,5.07
2022-09-06T21:19:03.479Z,5.07
2022-09-06T21:21:33.575Z,4.65
2022-09-06T21:24:02.544Z,5.22
2022-09-06T21:26:30.823Z,5.32
2022-09-06T21:28:59.212Z,4.65
2022-09-06T21:31:31.236Z,5.40
2022-09-06T21:34:01.934Z,5.70
2022-09-06T21:36:32.132Z,6.07
2022-09-06T21:39:02.232Z,5.75
2022-09-06T21:41:31.477Z,7.63
2022-09-06T21:44:01.095Z,8.50
2022-09-06T21:46:33.749Z,6.85
2022-09-06T21:49:04.253Z,5.45
2022-09-06T21:51:33.151Z,5.18
2022-09-06T21:54:04.407Z,5.53
2022-09-06T21:56:33.993Z,5.22
2022-09-06T21:59:02.748Z,4.80
2022-09-06T22:01:34.515Z,5.03
2022-09-06T22:04:03.247Z,5.35
2022-09-06T22:06:32.992Z,4.90
2022-09-06T22:09:02.460Z,4.97
2022-09-06T22:11:32.958Z,4.95
2022-09-06T22:14:02.831Z,4.53
2022-09-06T22:16:34.061Z,5.05
2022-09-06T22:19:04.892Z,5.25
2022-09-06T22:21:34.074Z,6.00
2022-09-06T22:24:04.579Z,5.18
2022-09-06T22:26:34.819Z,5.43
2022-09-06T22:29:05.151Z,5.22
2022-09-06T22:31:35.723Z,5.40
2022-09-06T22:34:04.692Z,4.95
2022-09-06T22:36:33.744Z,5.22
2022-09-06T22:39:01.931Z,5.90
2022-09-06T22:41:31.997Z,6.50
2022-09-06T22:48:15.169Z,5.80
2022-09-06T22:50:44.391Z,4.82
2022-09-06T22:53:13.281Z,5.47
2022-09-06T22:55:41.594Z,5.13
2022-09-06T22:58:09.615Z,5.65
2022-09-06T23:00:38.946Z,4.93
2022-09-06T23:03:07.108Z,5.25
2022-09-06T23:05:36.712Z,5.30
2022-09-06T23:08:05.642Z,5.07
2022-09-06T23:10:34.230Z,5.07
2022-09-06T23:13:02.590Z,5.55
2022-09-06T23:15:31.093Z,5.50
2022-09-06T23:17:59.478Z,5.05
2022-09-06T23:20:27.704Z,5.50
2022-09-06T23:22:57.165Z,5.40
2022-09-06T23:25:25.334Z,5.13
2022-09-06T23:27:53.507Z,4.95
2022-09-06T23:30:21.636Z,5.20
2022-09-06T23:32:49.780Z,5.18
2022-09-06T23:35:18.034Z,4.90
2022-09-06T23:37:46.514Z,5.60
2022-09-06T23:40:16.080Z,5.43
2022-09-06T23:42:44.527Z,5.30
2022-09-06T23:45:12.975Z,6.00
2022-09-06T23:47:41.129Z,4.93
2022-09-06T23:50:09.959Z,5.22
2022-09-06T23:52:38.263Z,5.05
2022-09-06T23:55:09.295Z,4.70
2022-09-06T23:57:38.762Z,5.28
